Indiana, PA

9:10 AM EST on January 27, 2015 (GMT -0500)
Line n Bait Shop | Change Station
CLOSE
Current Station
Personal Weather Station
Location: Indiana, PA
Elevation: 1257 ft
Nearby Weather Stations

Elev 1257 ft 40.62 °N, 79.15 °W | Updated 1 second ago

Overcast
Overcast
20.4 °F
Feels Like 20 °F
N
2.6
Wind Variable Wind from NW
Gusts 2.6 mph

Today
High -- | Low -- °F
--% Chance of Precip.
Yesterday
High -- | Low -- °F
Precip. -- in
7:31 AM 5:28 PM
First Quarter, 54% visible
Pressure 29.90 in
Visibility 6.0 miles
Clouds Mostly Cloudy 1200 ft
Mostly Cloudy 2900 ft
Overcast 3700 ft
Windchill 20 °F
Dew Point 19 °F
Humidity 93%
Rainfall 0.00 in
Snow Depth Not available.
UV 0.0 out of 12
Pollen .10 out of 12
Air Quality Not available.
Flu Activity Not available.
METAR KIDI 271355Z AUTO 31004KT 6SM BR BKN012 BKN029 OVC037 M07/M08 A2990 RMK A01

More Conditions Fewer Conditions

Pressure 29.90 in
Visibility 6.0 miles
Clouds Mostly Cloudy 1200 ft
Mostly Cloudy 2900 ft
Overcast 3700 ft
Windchill 20 °F
Dew Point 19 °F
Humidity 93%
Rainfall 0.00 in
Snow Depth Not available.
UV 0.0 out of 12
Pollen .10 out of 12
Air Quality Not available.
Flu Activity Not available.
METAR KIDI 271355Z AUTO 31004KT 6SM BR BKN012 BKN029 OVC037 M07/M08 A2990 RMK A01

More Conditions Fewer Conditions

10-Day Weather Forecast

Almanac

Astronomy

Jan. 27, 2015 Rise Set
Actual Time
Civil Twilight
Nautical Twilight
Astronomical Twilight
Moon
Length of Visible Light
Length of Day
Tomorrow will be .
, % of the Moon is Illuminated

Today's Extremes

State Highs State Lows

Community

WunderPhotos

Upload Photos

1,790,637 photos uploaded!

WunderBlogs® & News

Nearby

Air Quality

  Air Quality AQ Index Pollutant
Not available.

Snow Depth

Station Depth Elevation

Earthquake Activity

City Distance Mag. Time & Date
Minimum magnitude displayed is 2.5.

Coastal Water Temperatures

Place Temperature

Nearby Weather Stations